createdAt,value
2022-12-28T02:58:35.509Z,7.80
2022-12-28T03:01:24.067Z,6.38
2022-12-28T03:04:09.608Z,7.07
2022-12-28T03:07:00.810Z,7.93
2022-12-28T14:55:24.923Z,3.50
2022-12-28T14:57:59.584Z,3.03
2022-12-28T15:00:30.027Z,2.90
2022-12-28T15:02:57.955Z,2.97
2022-12-28T15:05:33.679Z,3.38
2022-12-28T15:08:00.705Z,4.40
2022-12-28T15:10:27.538Z,3.90
2022-12-28T15:12:54.364Z,4.30
2022-12-28T15:15:21.881Z,3.78
2022-12-28T15:17:48.819Z,3.95
2022-12-28T15:20:17.725Z,2.75
2022-12-28T15:22:44.581Z,3.15
2022-12-28T15:25:11.536Z,3.80
2022-12-28T15:27:39.531Z,4.13
2022-12-28T15:30:08.981Z,4.40
2022-12-28T15:32:37.725Z,5.47
2022-12-28T15:35:04.934Z,5.75
2022-12-28T15:37:32.258Z,6.20
2022-12-28T15:39:58.991Z,5.20
2022-12-28T15:42:25.775Z,4.38
2022-12-28T15:44:54.165Z,3.47
2022-12-28T15:47:21.181Z,3.40
2022-12-28T15:49:47.939Z,4.53
2022-12-28T15:52:14.701Z,4.18
2022-12-28T15:54:47.013Z,3.53
2022-12-28T15:57:15.949Z,3.33
2022-12-28T15:59:42.858Z,3.88
2022-12-28T16:02:11.744Z,3.33
2022-12-28T16:04:38.985Z,3.78
2022-12-28T16:07:06.024Z,5.13
2022-12-28T16:09:33.378Z,3.08
2022-12-28T16:12:00.694Z,2.70
2022-12-28T16:14:27.662Z,2.72
2022-12-28T16:16:54.558Z,4.20
2022-12-28T16:19:21.521Z,4.10
2022-12-28T16:21:52.878Z,3.53
2022-12-28T16:24:20.417Z,5.10
2022-12-28T16:26:47.789Z,3.63
2022-12-28T16:29:14.668Z,3.60
2022-12-28T16:31:41.685Z,4.03
2022-12-28T16:34:14.683Z,4.18
2022-12-28T16:36:42.595Z,3.78
2022-12-28T16:39:13.781Z,3.35
2022-12-28T16:41:40.673Z,2.90
2022-12-28T16:44:16.935Z,3.30
2022-12-28T16:46:43.875Z,3.00
2022-12-28T16:49:11.448Z,3.30
2022-12-28T16:51:40.556Z,3.90
2022-12-28T16:54:08.311Z,5.95
2022-12-28T16:56:35.107Z,5.63
2022-12-28T16:59:01.957Z,5.28
2022-12-28T17:01:28.930Z,5.55
2022-12-28T17:04:01.742Z,6.75
2022-12-28T17:06:30.786Z,4.15
2022-12-28T17:08:57.659Z,4.10
2022-12-28T17:11:24.434Z,3.83
2022-12-28T17:13:51.658Z,4.53
2022-12-28T17:16:18.543Z,4.07
2022-12-28T17:18:45.424Z,5.75
2022-12-28T17:21:12.454Z,6.30
2022-12-28T17:23:40.174Z,6.20
2022-12-28T17:26:07.409Z,5.55
2022-12-28T17:28:34.208Z,9.77
2022-12-28T17:31:14.284Z,11.60
2022-12-28T17:33:46.538Z,9.18
2022-12-28T17:36:13.354Z,4.63
2022-12-28T17:38:40.589Z,4.63
2022-12-28T17:41:09.701Z,9.70
2022-12-28T17:43:37.042Z,7.45
2022-12-28T17:46:04.572Z,6.93
2022-12-28T17:48:31.446Z,4.20
2022-12-28T17:51:01.677Z,5.00
2022-12-28T17:53:29.809Z,8.20
2022-12-28T17:56:00.314Z,6.30
2022-12-28T17:58:27.248Z,10.70
2022-12-28T18:00:57.166Z,9.50
2022-12-28T18:03:29.967Z,9.88
2022-12-28T18:06:00.285Z,9.77
2022-12-28T18:08:28.177Z,8.20
2022-12-28T18:10:55.247Z,10.57
2022-12-28T18:13:22.902Z,12.05
2022-12-28T18:15:50.479Z,11.10
2022-12-28T18:18:18.270Z,10.85
2022-12-28T18:20:55.181Z,18.85
2022-12-28T18:23:21.944Z,12.38
2022-12-28T18:25:48.990Z,5.57
2022-12-28T18:28:16.210Z,6.72
2022-12-28T18:30:43.492Z,5.70
2022-12-28T18:33:10.537Z,5.43
2022-12-28T18:35:37.759Z,8.15
2022-12-28T18:38:05.145Z,13.52
2022-12-28T18:40:50.797Z,14.48
2022-12-28T18:43:18.066Z,7.97
2022-12-28T18:45:52.293Z,16.08
2022-12-28T18:48:19.690Z,12.93
2022-12-28T18:53:30.967Z,8.20
2022-12-28T18:56:03.590Z,7.95
2022-12-28T18:58:33.584Z,16.02
2022-12-28T19:01:55.982Z,24.45
2022-12-28T19:04:08.109Z,33.15
2022-12-28T19:06:36.185Z,30.67
2022-12-28T19:09:04.145Z,26.30
2022-12-28T19:11:31.274Z,23.80
2022-12-28T19:13:58.515Z,16.33
2022-12-28T19:16:30.905Z,23.90
2022-12-28T19:18:59.794Z,19.73
2022-12-28T19:21:36.655Z,7.00
2022-12-28T19:24:23.098Z,9.80
2022-12-28T19:26:51.536Z,8.85
2022-12-28T19:29:18.466Z,9.20
2022-12-28T19:31:45.870Z,10.05
2022-12-28T19:34:13.274Z,9.23
2022-12-28T19:36:40.150Z,9.52
2022-12-28T19:39:07.447Z,9.27
2022-12-28T19:41:35.747Z,8.23
2022-12-28T19:44:03.138Z,8.15
2022-12-28T19:46:33.257Z,6.65
2022-12-28T19:49:01.663Z,7.22
2022-12-28T19:51:31.812Z,9.63
2022-12-28T19:54:00.488Z,9.68
2022-12-28T19:56:27.760Z,9.73
2022-12-28T19:59:01.181Z,9.02
2022-12-28T20:01:30.803Z,8.43
2022-12-28T20:04:00.037Z,10.40
2022-12-28T20:06:29.315Z,10.00
2022-12-28T20:08:59.717Z,7.90
2022-12-28T20:11:28.331Z,8.18
2022-12-28T20:13:58.042Z,8.57
2022-12-28T20:16:26.623Z,8.80
2022-12-28T20:18:55.306Z,7.35
2022-12-28T20:21:24.875Z,7.35
2022-12-28T20:23:57.572Z,6.07
2022-12-28T20:26:27.255Z,25.27
2022-12-28T20:28:54.901Z,9.50
2022-12-28T20:31:22.743Z,7.05
2022-12-28T20:33:53.753Z,7.97
2022-12-28T20:36:27.167Z,7.30
2022-12-28T20:38:56.138Z,7.03
2022-12-28T20:41:46.956Z,10.65
2022-12-28T20:44:25.373Z,8.18
2022-12-28T20:46:53.224Z,7.15
2022-12-28T20:49:21.445Z,8.18
2022-12-28T20:51:50.214Z,8.02
2022-12-28T20:54:19.812Z,14.32
2022-12-28T20:56:53.964Z,14.27
2022-12-28T20:59:23.195Z,12.07
2022-12-28T21:01:50.783Z,10.15
2022-12-28T21:04:17.941Z,10.40
2022-12-28T21:06:45.946Z,13.85
2022-12-28T21:09:13.561Z,8.73
2022-12-28T21:11:42.226Z,9.55
2022-12-28T21:14:09.605Z,9.55
2022-12-28T21:16:37.387Z,10.65
2022-12-28T21:19:04.741Z,9.57
2022-12-28T21:21:32.129Z,9.50
2022-12-28T21:23:59.158Z,9.18
2022-12-28T21:26:26.591Z,10.88
2022-12-28T21:28:54.325Z,11.65
2022-12-28T21:31:21.277Z,9.88
2022-12-28T21:33:48.025Z,8.95
2022-12-28T21:36:19.237Z,8.93
2022-12-28T21:38:48.121Z,8.98
2022-12-28T21:41:43.614Z,8.63
2022-12-28T21:44:15.275Z,10.63
2022-12-28T21:49:09.845Z,11.55
2022-12-28T21:51:38.795Z,10.57
2022-12-28T21:54:14.777Z,13.77
2022-12-28T21:56:43.126Z,16.85
2022-12-28T21:59:12.184Z,12.90
2022-12-28T22:01:59.580Z,12.48
2022-12-28T22:04:45.654Z,14.30
2022-12-28T22:07:15.477Z,18.33
2022-12-28T22:10:01.297Z,13.30
2022-12-28T22:12:37.545Z,11.32
2022-12-28T22:15:36.705Z,12.82
2022-12-28T22:18:12.785Z,11.38
2022-12-28T22:20:46.849Z,10.80
2022-12-28T22:23:14.485Z,11.57
2022-12-28T22:25:41.353Z,11.93
2022-12-28T22:28:08.744Z,12.55
2022-12-28T22:30:36.993Z,11.88
2022-12-28T22:33:04.727Z,10.85
2022-12-28T22:35:31.786Z,12.70
2022-12-28T22:37:58.862Z,10.98
2022-12-28T22:40:26.600Z,11.43
2022-12-28T22:42:53.542Z,13.20
2022-12-28T22:45:22.345Z,12.05
2022-12-28T22:47:49.553Z,11.20
2022-12-28T22:50:18.528Z,12.90
2022-12-28T22:52:45.745Z,13.13
2022-12-28T22:55:12.855Z,12.38
2022-12-28T22:57:39.681Z,12.60
2022-12-28T23:00:10.972Z,11.52
2022-12-28T23:02:37.897Z,11.60
2022-12-28T23:05:05.437Z,12.30
2022-12-28T23:07:32.257Z,13.68
2022-12-28T23:11:13.794Z,16.75
2022-12-28T23:13:40.737Z,22.45
2022-12-28T23:16:07.594Z,15.52
2022-12-28T23:18:53.133Z,12.68
2022-12-28T23:21:40.799Z,12.50
2022-12-28T23:24:31.319Z,15.27
2022-12-28T23:27:17.884Z,14.43
2022-12-28T23:29:46.018Z,18.38
2022-12-28T23:32:13.235Z,17.98
2022-12-28T23:34:41.428Z,19.27
2022-12-28T23:37:08.447Z,22.20
2022-12-28T23:39:35.307Z,23.77
2022-12-28T23:42:02.275Z,18.67
2022-12-28T23:44:29.173Z,19.98
2022-12-28T23:46:59.379Z,19.77
2022-12-28T23:49:26.737Z,25.08
2022-12-28T23:51:54.263Z,16.92
2022-12-28T23:54:21.253Z,21.33
2022-12-28T23:56:49.293Z,20.77
2022-12-28T23:59:16.377Z,13.73
